Time;durP1;ratioP1;P1;durP2;ratioP2;P2;SDS_P1;SDS_P2;PMS_P1;PMS_P2;Temp;Humidity;BMP_temperature;BMP_pressure;BME280_temperature;BME280_humidity;BME280_pressure;Samples;Min_cycle;Max_cycle;Signal;HPM_P1;HPM_P2
2021/12/07 00:00:00;;;;;;;52.80;25.52;;;;;;;;;;4994923;28;20047;-68
2021/12/07 00:02:27;;;;;;;55.17;27.15;;;;;;;;;;4995303;28;20257;-68
2021/12/07 00:04:53;;;;;;;49.63;26.45;;;;;;;;;;4996271;28;20050;-74
2021/12/07 00:07:19;;;;;;;45.63;26.27;;;;;;;;;;4996288;28;20042;-69
2021/12/07 00:09:49;;;;;;;49.08;25.20;;;;;;;;;;4995816;28;20495;-69
2021/12/07 00:12:15;;;;;;;54.17;25.20;;;;;;;;;;4995810;28;20121;-69
2021/12/07 00:14:44;;;;;;;55.75;26.15;;;;;;;;;;4995061;28;20089;-68
2021/12/07 00:17:10;;;;;;;54.22;26.63;;;;;;;;;;4995975;28;20509;-69
2021/12/07 00:19:36;;;;;;;57.65;26.55;;;;;;;;;;4995719;28;20578;-68
2021/12/07 00:22:03;;;;;;;57.28;26.08;;;;;;;;;;4995668;28;20491;-68
2021/12/07 00:24:29;;;;;;;54.75;25.98;;;;;;;;;;4995820;28;20050;-68
2021/12/07 00:26:57;;;;;;;47.00;23.98;;;;;;;;;;4995629;28;20050;-69
2021/12/07 00:29:23;;;;;;;;;;;;;;;;;;4996006;28;20707;-70
2021/12/07 00:32:04;;;;;;;50.85;24.08;;;;;;;;;;4995522;28;19929;-69
2021/12/07 00:37:00;;;;;;;54.05;26.33;;;;;;;;;;4995628;28;20050;-69
2021/12/07 00:39:26;;;;;;;49.70;24.92;;;;;;;;;;4995660;28;20042;-68
2021/12/07 00:41:54;;;;;;;55.30;26.58;;;;;;;;;;4995322;28;20085;-68
2021/12/07 00:44:21;;;;;;;52.38;26.85;;;;;;;;;;4994540;28;20482;-69
2021/12/07 00:46:49;;;;;;;55.33;26.35;;;1.90;99.90;;;;;;4994294;28;20054;-69
2021/12/07 00:49:15;;;;;;;60.47;28.58;;;;;;;;;;4994499;28;20054;-69
2021/12/07 00:51:41;;;;;;;59.92;27.90;;;;;;;;;;4995423;28;20129;-68
2021/12/07 00:54:09;;;;;;;51.13;25.05;;;;;;;;;;4994476;28;20118;-69
2021/12/07 00:56:36;;;;;;;60.85;27.33;;;;;;;;;;4994879;28;20046;-69
2021/12/07 00:59:02;;;;;;;;;;;1.70;99.90;;;;;;4994369;28;20058;-69
2021/12/07 01:01:28;;;;;;;57.25;26.00;;;;;;;;;;4994098;28;19976;-69
2021/12/07 01:03:54;;;;;;;57.20;26.13;;;;;;;;;;4994046;28;20058;-69
2021/12/07 01:06:31;;;;;;;53.70;26.83;;;;;;;;;;4995127;28;20042;-69
2021/12/07 01:25:22;;;;;;;59.20;28.58;;;;;;;;;;4994533;28;20053;-68
2021/12/07 01:27:50;;;;;;;59.55;27.48;;;;;;;;;;4994702;28;20188;-68
2021/12/07 01:30:31;;;;;;;58.33;27.75;;;;;;;;;;4994597;28;20069;-68
2021/12/07 01:33:27;;;;;;;60.90;27.15;;;;;;;;;;4993598;28;20050;-68
2021/12/07 01:41:09;;;;;;;57.25;26.75;;;;;;;;;;4993131;28;20058;-68
2021/12/07 01:51:46;;;;;;;58.00;26.60;;;;;;;;;;4993253;28;20507;-71
2021/12/07 01:59:49;;;;;;;50.55;24.08;;;;;;;;;;4994210;28;20402;-69
2021/12/07 02:02:16;;;;;;;47.05;24.20;;;;;;;;;;4992754;28;20061;-70
2021/12/07 02:04:43;;;;;;;51.75;24.58;;;;;;;;;;4993940;28;20042;-68
2021/12/07 02:07:10;;;;;;;51.10;22.63;;;1.60;99.90;;;;;;4993899;28;20042;-69
2021/12/07 02:09:39;;;;;;;54.15;24.40;;;1.90;99.90;;;;;;4993598;28;20459;-70
2021/12/07 02:12:06;;;;;;;44.42;22.65;;;;;;;;;;4992730;28;20086;-70
2021/12/07 02:14:32;;;;;;;48.13;22.90;;;;;;;;;;4993869;28;20085;-69
2021/12/07 02:17:06;;;;;;;;;;;1.50;99.90;;;;;;4994116;28;20053;-69
2021/12/07 02:19:33;;;;;;;47.88;22.98;;;;;;;;;;4993819;28;20011;-69
2021/12/07 02:22:00;;;;;;;50.10;22.48;;;;;;;;;;4993772;28;20050;-69
2021/12/07 02:24:26;;;;;;;48.25;22.80;;;;;;;;;;4993445;28;20082;-69
2021/12/07 02:26:52;;;;;;;;;;;1.80;99.90;;;;;;4994104;28;20042;-69
2021/12/07 02:29:20;;;;;;;55.67;24.85;;;;;;;;;;4993555;28;19922;-69
2021/12/07 02:31:47;;;;;;;43.30;21.35;;;;;;;;;;4992545;28;20046;-69
2021/12/07 02:34:13;;;;;;;51.25;23.90;;;;;;;;;;4993598;28;20046;-69
2021/12/07 02:36:39;;;;;;;;;;;1.80;99.90;;;;;;4993839;28;20096;-68
2021/12/07 02:39:06;;;;;;;46.22;20.73;;;;;;;;;;4993242;28;20031;-73
2021/12/07 02:41:32;;;;;;;43.40;20.75;;;;;;;;;;4993581;28;20053;-70
2021/12/07 02:43:58;;;;;;;39.72;20.17;;;;;;;;;;4992397;28;20054;-70
2021/12/07 02:46:24;;;;;;;45.30;21.15;;;;;;;;;;4993445;28;20051;-70
2021/12/07 02:48:50;;;;;;;45.25;21.70;;;;;;;;;;4976252;28;20403;-70
2021/12/07 02:51:16;;;;;;;39.75;19.48;;;;;;;;;;4993151;28;20490;-70
2021/12/07 02:53:43;;;;;;;44.38;18.75;;;;;;;;;;4993155;28;20125;-69
2021/12/07 02:56:09;;;;;;;;;;;1.90;99.90;;;;;;4993618;28;20046;-69
2021/12/07 02:58:36;;;;;;;43.17;18.90;;;;;;;;;;4991852;28;19932;-73
2021/12/07 03:01:12;;;;;;;40.88;17.90;;;;;;;;;;4992350;28;20462;-69
2021/12/07 03:03:48;;;;;;;36.40;18.85;;;;;;;;;;4993508;28;20050;-69
2021/12/07 03:06:25;;;;;;;38.63;17.85;;;;;;;;;;4992169;28;20065;-69
2021/12/07 03:27:57;;;;;;;39.40;17.00;;;;;;;;;;4996967;28;20082;-69
2021/12/07 03:30:23;;;;;;;36.97;17.52;;;;;;;;;;4996426;28;20201;-69
2021/12/07 03:32:50;;;;;;;35.58;16.08;;;;;;;;;;4996777;28;20089;-69
2021/12/07 03:35:16;;;;;;;33.53;16.23;;;;;;;;;;4996467;28;20108;-69
2021/12/07 03:37:42;;;;;;;;;;;1.30;99.90;;;;;;4996195;28;20392;-70
2021/12/07 03:40:09;;;;;;;36.20;15.38;;;;;;;;;;4996653;28;19921;-69
2021/12/07 03:42:35;;;;;;;34.42;15.38;;;;;;;;;;4995423;28;20058;-69
2021/12/07 03:45:01;;;;;;;32.67;15.63;;;;;;;;;;4996678;28;20089;-69
2021/12/07 03:47:27;;;;;;;37.15;15.52;;;;;;;;;;4996583;28;20117;-69
2021/12/07 03:49:54;;;;;;;33.08;15.70;;;;;;;;;;4996257;28;20157;-69
2021/12/07 03:52:20;;;;;;;32.55;15.50;;;;;;;;;;4995509;28;20487;-68
2021/12/07 03:54:47;;;;;;;32.28;15.68;;;;;;;;;;4995932;28;20519;-69
2021/12/07 03:57:13;;;;;;;32.15;15.88;;;;;;;;;;4995070;28;20418;-69
2021/12/07 03:59:39;;;;;;;32.85;15.38;;;;;;;;;;4995007;28;20483;-68
2021/12/07 04:02:07;;;;;;;30.77;14.82;;;;;;;;;;4996238;28;20050;-69
2021/12/07 04:04:33;;;;;;;33.00;14.55;;;;;;;;;;4995954;28;20093;-68
2021/12/07 04:06:59;;;;;;;31.23;14.35;;;;;;;;;;4996127;28;20038;-69
2021/12/07 04:09:25;;;;;;;36.70;15.18;;;;;;;;;;4996212;28;20055;-69
2021/12/07 04:11:51;;;;;;;34.50;15.43;;;;;;;;;;4996106;28;20102;-71
2021/12/07 04:14:17;;;;;;;32.53;15.10;;;;;;;;;;4996139;28;20402;-69
2021/12/07 04:16:43;;;;;;;38.15;15.27;;;;;;;;;;4994748;28;20046;-69
2021/12/07 04:19:10;;;;;;;33.63;14.55;;;;;;;;;;4995729;28;20058;-69
2021/12/07 04:21:36;;;;;;;38.95;15.98;;;;;;;;;;4994922;28;20054;-68
2021/12/07 04:24:02;;;;;;;37.45;16.25;;;;;;;;;;4995953;28;20451;-69
2021/12/07 04:26:28;;;;;;;39.33;15.23;;;;;;;;;;4995882;28;20133;-69
2021/12/07 04:28:54;;;;;;;33.17;14.50;;;;;;;;;;4995743;28;20113;-69
2021/12/07 04:31:20;;;;;;;37.42;15.13;;;;;;;;;;4995793;28;20101;-68
2021/12/07 04:33:47;;;;;;;39.17;14.80;;;;;;;;;;4995247;28;20494;-68
2021/12/07 04:36:13;;;;;;;33.60;15.27;;;;;;;;;;4995535;28;20047;-69
2021/12/07 04:38:40;;;;;;;44.20;15.25;;;;;;;;;;4994480;28;20043;-69
2021/12/07 04:41:06;;;;;;;41.65;15.40;;;;;;;;;;4995598;28;20042;-68
2021/12/07 04:43:33;;;;;;;35.97;15.05;;;;;;;;;;4995539;28;20496;-68
2021/12/07 04:59:24;;;;;;;34.22;14.73;;;;;;;;;;4994267;28;20101;-68
2021/12/07 05:01:50;;;;;;;40.17;14.90;;;;;;;;;;4995211;28;20047;-70
2021/12/07 05:04:22;;;;;;;31.05;13.90;;;;;;;;;;4994909;28;20391;-71
2021/12/07 05:06:52;;;;;;;31.60;13.68;;;;;;;;;;4995166;28;20050;-68
2021/12/07 05:12:02;;;;;;;33.53;12.88;;;;;;;;;;4994997;28;20062;-69
2021/12/07 05:14:31;;;;;;;30.23;12.10;;;;;;;;;;4995000;28;20101;-68
2021/12/07 05:38:20;;;;;;;24.35;8.88;;;;;;;;;;4994648;28;20132;-67
2021/12/07 05:40:46;;;;;;;18.73;6.72;;;;;;;;;;4993454;28;20050;-67
2021/12/07 05:43:12;;;;;;;12.05;5.57;;;;;;;;;;4994450;28;20054;-69
2021/12/07 05:45:39;;;;;;;24.42;5.80;;;;;;;;;;4994079;28;20497;-68
2021/12/07 05:48:06;;;;;;;18.05;5.47;;;3.00;99.90;;;;;;4993828;28;20046;-68
2021/12/07 05:50:34;;;;;;;20.58;4.57;;;2.90;99.90;;;;;;4993279;28;20090;-69
2021/12/07 05:53:04;;;;;;;17.83;4.00;;;3.30;99.90;;;;;;4994196;28;20379;-67
2021/12/07 05:55:30;;;;;;;14.70;3.20;;;;;;;;;;4994170;28;20038;-67
2021/12/07 05:57:56;;;;;;;17.85;2.90;;;;;;;;;;4994155;28;20076;-68
2021/12/07 06:00:26;;;;;;;8.02;2.20;;;;;;;;;;4993788;28;20054;-68
2021/12/07 06:02:56;;;;;;;15.32;2.40;;;;;;;;;;4994071;28;20089;-68
2021/12/07 06:05:24;;;;;;;6.47;1.70;;;;;;;;;;4992989;28;20077;-69
2021/12/07 06:07:50;;;;;;;6.00;1.70;;;;;;;;;;4993906;28;20053;-68
2021/12/07 06:10:16;;;;;;;17.13;2.38;;;;;;;;;;4993974;28;20046;-68
2021/12/07 06:12:42;;;;;;;11.63;2.13;;;;;;;;;;4993924;28;20121;-68
2021/12/07 06:15:09;;;;;;;12.27;1.75;;;;;;;;;;4993573;28;20050;-68
2021/12/07 06:17:35;;;;;;;9.82;1.60;;;;;;;;;;4993884;28;20231;-68
2021/12/07 06:20:01;;;;;;;10.55;1.83;;;;;;;;;;4993819;28;20057;-69
2021/12/07 06:22:27;;;;;;;6.25;1.42;;;;;;;;;;4993820;28;20054;-71
2021/12/07 06:24:54;;;;;;;9.77;1.52;;;;;;;;;;4993747;28;20046;-69
2021/12/07 06:27:20;;;;;;;15.02;2.22;;;;;;;;;;4993745;28;20457;-69
2021/12/07 06:29:46;;;;;;;13.55;1.90;;;;;;;;;;4993025;28;20513;-69
2021/12/07 06:32:12;;;;;;;8.10;1.88;;;;;;;;;;4993648;28;20046;-69
2021/12/07 06:34:38;;;;;;;13.88;2.17;;;;;;;;;;4992585;28;20057;-70
2021/12/07 06:37:05;;;;;;;5.43;2.00;;;;;;;;;;4992343;28;20096;-69
2021/12/07 06:39:31;;;;;;;8.10;2.00;;;;;;;;;;4993536;28;20054;-69
2021/12/07 06:41:57;;;;;;;11.93;2.38;;;;;;;;;;4993510;28;20371;-69
2021/12/07 06:44:23;;;;;;;19.77;2.90;;;;;;;;;;4993328;28;20418;-71
2021/12/07 06:46:50;;;;;;;7.85;2.38;;;;;;;;;;4993459;28;20050;-70
2021/12/07 06:49:17;;;;;;;13.77;2.75;;;;;;;;;;4993438;28;20055;-70
2021/12/07 06:51:43;;;;;;;11.57;2.97;;;;;;;;;;4993480;28;20092;-70
2021/12/07 06:54:09;;;;;;;;;;;;;;;;;;4993779;28;20046;-69
2021/12/07 06:56:35;;;;;;;11.43;2.65;;;;;;;;;;4993260;28;19921;-69
2021/12/07 06:59:01;;;;;;;15.15;2.20;;;;;;;;;;4976189;28;20046;-69
2021/12/07 07:01:27;;;;;;;8.35;1.95;;;;;;;;;;4997461;28;20439;-68
2021/12/07 07:03:53;;;;;;;12.85;2.63;;;;;;;;;;4996399;28;20141;-70
2021/12/07 07:06:19;;;;;;;9.75;2.33;;;;;;;;;;4997291;28;20046;-69
2021/12/07 07:08:46;;;;;;;8.63;1.90;;;;;;;;;;4997375;28;20093;-69
2021/12/07 07:11:12;;;;;;;12.27;2.05;;;;;;;;;;4996282;28;20380;-69
2021/12/07 07:13:38;;;;;;;3.03;1.50;;;;;;;;;;4996971;28;20089;-69
2021/12/07 07:16:04;;;;;;;7.00;1.42;;;;;;;;;;4979820;28;20209;-69
2021/12/07 07:18:30;;;;;;;9.52;1.88;;;;;;;;;;4996153;28;20057;-69
2021/12/07 07:20:56;;;;;;;7.90;1.73;;;;;;;;;;4997093;28;20138;-69
2021/12/07 07:23:22;;;;;;;;;;;;;;;;;;4996314;28;20133;-68
2021/12/07 07:25:49;;;;;;;5.15;1.70;;;;;;;;;;4997018;28;20378;-69
2021/12/07 07:28:15;;;;;;;10.70;2.20;;;;;;;;;;4996672;28;20054;-69
2021/12/07 07:30:41;;;;;;;6.85;2.00;;;;;;;;;;4996459;28;20058;-69
2021/12/07 07:33:07;;;;;;;10.80;2.45;;;2.10;99.90;;;;;;4996811;28;20129;-69
2021/12/07 07:35:33;;;;;;;9.43;2.42;;;;;;;;;;4995526;28;20165;-69
2021/12/07 07:38:00;;;;;;;12.88;2.40;;;;;;;;;;4996402;28;20053;-79
2021/12/07 07:40:26;;;;;;;13.77;2.63;;;;;;;;;;4989684;28;20061;-69
2021/12/07 07:42:53;;;;;;;13.55;2.97;;;;;;;;;;4994167;28;20129;-77
2021/12/07 07:45:19;;;;;;;15.50;4.20;;;;;;;;;;4977753;28;20052;-71
2021/12/07 07:47:45;;;;;;;;;;;1.50;99.90;;;;;;4995377;28;20049;-69
2021/12/07 07:50:12;;;;;;;13.05;4.72;;;;;;;;;;4994034;28;19921;-69
2021/12/07 07:52:38;;;;;;;15.60;5.30;;;;;;;;;;4993874;28;20047;-69
2021/12/07 07:55:04;;;;;;;14.63;5.47;;;;;;;;;;4993355;28;20058;-69
2021/12/07 07:57:30;;;;;;;15.43;4.97;;;;;;;;;;4993562;28;20054;-69
2021/12/07 07:59:56;;;;;;;12.57;4.97;;;;;;;;;;4995091;28;20510;-69
2021/12/07 08:02:23;;;;;;;15.13;5.30;;;;;;;;;;4994347;28;20065;-69
2021/12/07 08:04:49;;;;;;;22.15;5.40;;;;;;;;;;4992541;28;20113;-71
2021/12/07 08:07:15;;;;;;;18.88;5.43;;;;;;;;;;4977813;28;20042;-68
2021/12/07 08:09:41;;;;;;;16.13;5.05;;;;;;;;;;4993894;28;20487;-67
2021/12/07 08:12:07;;;;;;;16.92;5.70;;;;;;;;;;4994628;28;20054;-68
2021/12/07 08:14:34;;;;;;;18.38;4.93;;;;;;;;;;4993377;28;20093;-67
2021/12/07 08:17:00;;;;;;;18.42;5.38;;;;;;;;;;4994520;28;20056;-67
2021/12/07 08:19:26;;;;;;;;;;;;;;;;;;4994019;28;20860;-68
2021/12/07 08:21:52;;;;;;;15.05;5.32;;;;;;;;;;4993762;28;19996;-67
2021/12/07 08:24:18;;;;;;;16.20;5.35;;;;;;;;;;4992748;28;20133;-68
2021/12/07 08:26:44;;;;;;;19.65;5.65;;;;;;;;;;4994348;28;20115;-69
2021/12/07 08:29:11;;;;;;;21.55;6.65;;;;;;;;;;4994566;28;20062;-75
2021/12/07 08:31:37;;;;;;;19.77;6.32;;;;;;;;;;4990332;28;20105;-67
2021/12/07 08:34:03;;;;;;;17.80;6.32;;;;;;;;;;4994504;28;20089;-67
2021/12/07 08:36:29;;;;;;;30.75;6.18;;;;;;;;;;4992927;28;20647;-69
2021/12/07 08:38:56;;;;;;;26.05;6.38;;;;;;;;;;4978528;28;20133;-78
2021/12/07 08:41:22;;;;;;;22.90;5.93;;;;;;;;;;4982498;28;20046;-68
2021/12/07 08:43:48;;;;;;;21.55;6.40;;;;;;;;;;4992870;28;20053;-66
2021/12/07 08:46:15;;;;;;;17.13;5.60;;;;;;;;;;4994000;28;20466;-72
2021/12/07 08:48:42;;;;;;;21.92;5.82;;;;;;;;;;4994246;28;20053;-68
2021/12/07 08:51:09;;;;;;;21.52;6.43;;;;;;;;;;4995275;28;20054;-68
2021/12/07 08:53:38;;;;;;;22.35;6.25;;;;;;;;;;4995140;28;20050;-67
2021/12/07 09:01:35;;;;;;;30.15;7.55;;;;;;;;;;4995135;28;20061;-67
2021/12/07 09:04:01;;;;;;;25.73;7.43;;;;;;;;;;4995040;28;20104;-68
2021/12/07 09:06:27;;;;;;;;;;;;;;;;;;4995322;28;20049;-65
2021/12/07 09:08:53;;;;;;;23.55;6.90;;;;;;;;;;4994596;28;20293;-67
2021/12/07 09:11:19;;;;;;;23.92;8.00;;;;;;;;;;4994848;28;20050;-66
2021/12/07 09:13:46;;;;;;;17.02;6.72;;;;;;;;;;4994829;28;20518;-66
2021/12/07 09:16:14;;;;;;;32.53;7.90;;;2.70;99.90;;;;;;5026177;28;20042;-67
2021/12/07 09:18:41;;;;;;;24.48;8.07;;;;;;;;;;4994696;28;20056;-66
2021/12/07 09:21:07;;;;;;;25.02;8.50;;;;;;;;;;4994326;28;20458;-67
2021/12/07 09:23:33;;;;;;;21.50;7.95;;;;;;;;;;4993573;28;20050;-66
2021/12/07 09:26:00;;;;;;;26.40;7.82;;;;;;;;;;4993635;28;20419;-66
2021/12/07 09:28:26;;;;;;;27.98;7.88;;;;;;;;;;4994446;28;20050;-66
2021/12/07 09:30:55;;;;;;;37.10;8.52;;;;;;;;;;4993965;28;20069;-67
2021/12/07 09:33:22;;;;;;;;;;;2.90;99.90;;;;;;4994519;28;20049;-68
2021/12/07 09:35:49;;;;;;;31.50;7.77;;;2.80;99.90;;;;;;4993745;28;19961;-70
2021/12/07 09:38:15;;;;;;;26.15;7.45;;;;;;;;;;4992325;28;20054;-71
2021/12/07 09:40:42;;;;;;;32.53;8.20;;;;;;;;;;4993858;28;20046;-70
2021/12/07 09:43:08;;;;;;;23.15;7.88;;;;;;;;;;4994264;28;20051;-68
2021/12/07 09:45:35;;;;;;;22.88;7.55;;;;;;;;;;4994142;28;20053;-68
2021/12/07 09:48:03;;;;;;;25.33;8.32;;;;;;;;;;4994176;28;20053;-69
2021/12/07 09:50:29;;;;;;;27.08;7.90;;;;;;;;;;4994028;28;20146;-67
2021/12/07 09:52:56;;;;;;;25.88;8.13;;;;;;;;;;4993726;28;20061;-69
2021/12/07 09:55:22;;;;;;;25.50;8.32;;;;;;;;;;4992971;28;20364;-67
2021/12/07 09:57:48;;;;;;;24.80;7.57;;;;;;;;;;4994009;28;20398;-69
2021/12/07 10:00:17;;;;;;;23.83;8.18;;;;;;;;;;4993818;28;20046;-68
2021/12/07 10:02:43;;;;;;;25.90;8.30;;;;;;;;;;4993850;28;20057;-67
2021/12/07 10:05:10;;;;;;;29.30;8.10;;;;;;;;;;4993836;28;20050;-68
2021/12/07 10:07:37;;;;;;;;;;;3.80;99.90;;;;;;4993893;28;20058;-69
2021/12/07 10:10:08;;;;;;;22.33;8.00;;;;;;;;;;4993435;28;19929;-77
2021/12/07 10:12:36;;;;;;;19.10;7.57;;;;;;;;;;4992991;28;20054;-69
2021/12/07 10:15:08;;;;;;;25.58;8.20;;;3.50;99.90;;;;;;4992812;28;20399;-69
2021/12/07 10:17:37;;;;;;;25.88;8.50;;;;;;;;;;4992514;28;20458;-70
2021/12/07 10:20:23;;;;;;;24.27;7.97;;;;;;;;;;4989045;28;20061;-80
2021/12/07 10:22:51;;;;;;;25.75;8.10;;;;;;;;;;4992087;28;20050;-69
2021/12/07 10:25:27;;;;;;;23.90;7.72;;;;;;;;;;4992592;28;20054;-70
2021/12/07 10:27:55;;;;;;;25.65;7.88;;;;;;;;;;4992026;28;20042;-70
2021/12/07 10:30:22;;;;;;;21.02;7.13;;;4.00;99.90;;;;;;4992081;28;20069;-71
2021/12/07 10:33:02;;;;;;;17.75;7.03;;;;;;;;;;4991039;28;20108;-71
2021/12/07 10:35:29;;;;;;;22.50;7.35;;;;;;;;;;4989408;28;20051;-71
2021/12/07 10:38:31;;;;;;;18.85;6.97;;;;;;;;;;4991046;28;20402;-73
2021/12/07 10:41:02;;;;;;;24.52;7.25;;;;;;;;;;4973350;28;20050;-71
2021/12/07 10:43:47;;;;;;;17.95;6.57;;;3.90;99.90;;;;;;4991785;28;20431;-71
2021/12/07 10:46:28;;;;;;;23.45;7.85;;;;;;;;;;4980143;28;20053;-70
2021/12/07 10:49:12;;;;;;;24.42;8.13;;;;;;;;;;4991905;28;20047;-70
2021/12/07 10:51:39;;;;;;;18.67;7.50;;;;;;;;;;4991560;28;20061;-71
2021/12/07 10:54:04;;;;;;;;;;;4.60;99.90;;;;;;4993534;28;20483;-71
2021/12/07 10:56:35;;;;;;;20.23;8.20;;;;;;;;;;4992174;28;19937;-71
2021/12/07 10:59:03;;;;;;;24.73;8.70;;;;;;;;;;4992331;28;20570;-71
2021/12/07 11:01:37;;;;;;;16.75;6.85;;;;;;;;;;4993291;28;20054;-70
2021/12/07 11:04:28;;;;;;;34.05;8.48;;;4.70;99.90;;;;;;4992293;28;20065;-70
2021/12/07 11:07:07;;;;;;;19.30;7.38;;;;;;;;;;4992969;28;20046;-70
2021/12/07 11:09:42;;;;;;;21.00;7.03;;;4.70;99.90;;;;;;5008538;28;20050;-71
2021/12/07 11:12:13;;;;;;;22.95;7.50;;;5.30;99.90;;;;;;4992237;28;20121;-71
2021/12/07 11:14:52;;;;;;;14.77;7.55;;;;;;;;;;4993257;28;20108;-71
2021/12/07 11:17:21;;;;;;;22.10;7.57;;;;;;;;;;4993196;28;20046;-71
2021/12/07 11:19:47;;;;;;;19.05;6.82;;;;;;;;;;4992873;28;20069;-72
2021/12/07 11:22:19;;;;;;;17.95;6.40;;;;;;;;;;4988065;28;20395;-76
2021/12/07 11:24:45;;;;;;;15.60;5.57;;;5.30;99.90;;;;;;4994413;28;20046;-68
2021/12/07 11:29:59;;;;;;;12.90;5.20;;;;;;;;;;4992916;28;20485;-69
2021/12/07 11:32:26;;;;;;;13.75;4.85;;;;;;;;;;4992911;28;20113;-72
2021/12/07 11:34:52;;;;;;;19.92;5.70;;;;;;;;;;4992629;28;20057;-68
2021/12/07 11:37:22;;;;;;;19.27;4.97;;;;;;;;;;4992914;28;20042;-68
2021/12/07 11:39:54;;;;;;;17.30;5.38;;;;;;;;;;4992855;28;20050;-68
2021/12/07 11:42:20;;;;;;;23.77;5.13;;;;;;;;;;4992795;28;20050;-68
2021/12/07 11:44:52;;;;;;;23.50;5.28;;;;;;;;;;4992265;28;20042;-71
2021/12/07 11:47:30;;;;;;;17.48;4.53;;;;;;;;;;4995715;28;20133;-71
2021/12/07 11:49:57;;;;;;;16.50;4.40;;;;;;;;;;4995414;28;20109;-71
2021/12/07 11:52:23;;;;;;;14.77;4.90;;;5.60;99.90;;;;;;4995661;28;20046;-70
2021/12/07 11:54:49;;;;;;;14.85;5.10;;;;;;;;;;4994477;28;20129;-73
2021/12/07 11:57:18;;;;;;;11.70;4.13;;;6.10;99.90;;;;;;4995491;28;20043;-71
2021/12/07 11:59:45;;;;;;;19.73;4.80;;;;;;;;;;4992526;28;20042;-81
2021/12/07 12:02:11;;;;;;;15.32;4.38;;;;;;;;;;4988890;28;20143;-72
2021/12/07 12:04:39;;;;;;;20.85;4.70;;;;;;;;;;4995913;28;20050;-71
2021/12/07 12:07:08;;;;;;;15.32;5.03;;;;;;;;;;4996125;28;20050;-69
2021/12/07 12:09:35;;;;;;;15.57;5.47;;;;;;;;;;4996018;28;20125;-71
2021/12/07 12:12:10;;;;;;;13.75;4.50;;;;;;;;;;4995015;28;20136;-69
2021/12/07 12:14:48;;;;;;;17.67;4.60;;;;;;;;;;4994919;28;20134;-68
2021/12/07 12:17:40;;;;;;;13.07;4.47;;;6.20;99.90;;;;;;4994362;28;20529;-70
2021/12/07 12:20:06;;;;;;;15.02;4.88;;;;;;;;;;4994569;28;20136;-69
2021/12/07 12:22:41;;;;;;;13.90;4.20;;;6.10;99.90;;;;;;4994886;28;20145;-70
2021/12/07 12:25:11;;;;;;;20.42;5.07;;;6.10;99.90;;;;;;4995804;28;20057;-70
2021/12/07 12:27:38;;;;;;;15.05;4.50;;;5.90;99.90;;;;;;4978313;28;20050;-70
2021/12/07 12:30:24;;;;;;;15.70;4.30;;;6.00;99.90;;;;;;4995508;28;20117;-70
2021/12/07 12:32:54;;;;;;;18.10;4.40;;;6.30;99.90;;;;;;4991097;28;20054;-71
2021/12/07 12:35:34;;;;;;;16.33;4.10;;;6.10;99.90;;;;;;4995602;28;20116;-73
2021/12/07 12:38:00;;;;;;;16.63;3.85;;;;;;;;;;4994690;28;20120;-73
2021/12/07 12:40:28;;;;;;;14.82;4.40;;;;;;;;;;4995630;28;20112;-73
2021/12/07 12:42:57;;;;;;;18.40;4.35;;;;;;;;;;4995495;28;20495;-70
2021/12/07 12:45:34;;;;;;;14.00;3.83;;;6.70;99.90;;;;;;4995223;28;20077;-70
2021/12/07 12:48:08;;;;;;;14.82;3.95;;;;;;;;;;4995240;28;20061;-70
2021/12/07 12:50:47;;;;;;;16.00;3.65;;;6.60;99.90;;;;;;4994438;28;20073;-69
2021/12/07 12:53:15;;;;;;;21.90;4.45;;;;;;;;;;4995599;28;20208;-70
2021/12/07 12:55:52;;;;;;;14.38;4.18;;;;;;;;;;4995189;28;20050;-69
2021/12/07 12:58:34;;;;;;;14.40;3.63;;;6.30;99.90;;;;;;4995181;28;20046;-69
2021/12/07 13:01:18;;;;;;;14.23;3.50;;;6.10;99.90;;;;;;4994439;28;20046;-69
2021/12/07 13:03:43;;;;;;;17.17;3.53;;;6.10;99.90;;;;;;4993685;28;20043;-70
2021/12/07 13:06:14;;;;;;;12.77;3.60;;;6.00;99.90;;;;;;4994741;28;20450;-68
2021/12/07 13:08:55;;;;;;;14.15;3.42;;;6.10;99.90;;;;;;4995043;28;20058;-68
2021/12/07 13:11:33;;;;;;;17.90;3.65;;;6.20;99.90;;;;;;4978460;28;20121;-70
2021/12/07 13:13:59;;;;;;;14.00;3.70;;;6.00;99.90;;;;;;4988896;28;20050;-70
2021/12/07 13:16:25;;;;;;;20.52;3.65;;;6.30;99.90;;;;;;4993613;28;20361;-70
2021/12/07 13:18:59;;;;;;;16.25;3.85;;;5.80;99.90;;;;;;4993807;28;20144;-71
2021/12/07 13:21:35;;;;;;;13.77;3.88;;;;;;;;;;4994774;28;20046;-69
2021/12/07 13:24:08;;;;;;;16.70;3.77;;;6.30;99.90;;;;;;4994887;28;20086;-70
2021/12/07 13:26:40;;;;;;;16.05;4.18;;;5.70;99.90;;;;;;4994761;28;20056;-71
2021/12/07 13:29:17;;;;;;;15.45;4.10;;;5.60;99.90;;;;;;4993519;28;20399;-71
2021/12/07 13:31:51;;;;;;;13.32;3.95;;;5.60;99.90;;;;;;4994515;28;20418;-71
2021/12/07 13:34:24;;;;;;;17.02;4.05;;;;;;;;;;4993588;28;20511;-70
2021/12/07 13:37:01;;;;;;;12.85;4.30;;;;;;;;;;4994572;28;20049;-70
2021/12/07 13:39:32;;;;;;;14.50;4.45;;;;;;;;;;4993553;28;20397;-70
2021/12/07 13:42:11;;;;;;;19.83;4.72;;;5.60;99.90;;;;;;4994476;28;20054;-73
2021/12/07 13:44:39;;;;;;;16.40;5.07;;;5.70;99.90;;;;;;4993199;28;20471;-70
2021/12/07 13:47:06;;;;;;;16.63;4.78;;;;;;;;;;4994329;28;20112;-70
2021/12/07 13:49:33;;;;;;;15.95;5.35;;;;;;;;;;4993367;28;20078;-70
2021/12/07 13:52:00;;;;;;;13.07;4.75;;;5.30;99.90;;;;;;4993273;28;20081;-70
2021/12/07 13:54:25;;;;;;;17.25;5.10;;;5.90;99.90;;;;;;4993255;28;20557;-70
2021/12/07 13:56:53;;;;;;;19.55;5.20;;;5.50;99.90;;;;;;4994191;28;20046;-70
2021/12/07 13:59:22;;;;;;;19.63;5.30;;;5.40;99.90;;;;;;4993885;28;20043;-71
2021/12/07 14:01:55;;;;;;;17.85;5.43;;;5.30;99.90;;;;;;4994136;28;20107;-72
2021/12/07 14:04:24;;;;;;;13.45;4.80;;;5.30;99.90;;;;;;4994207;28;20133;-71
2021/12/07 14:06:51;;;;;;;21.75;5.85;;;5.40;99.90;;;;;;4993038;28;20510;-70
2021/12/07 14:09:17;;;;;;;22.58;5.45;;;;;;;;;;4993608;28;20054;-71
2021/12/07 14:11:44;;;;;;;15.68;5.35;;;;;;;;;;4993898;28;20108;-72
2021/12/07 14:14:15;;;;;;;11.98;4.53;;;5.00;99.90;;;;;;4992658;28;20391;-70
2021/12/07 14:16:43;;;;;;;15.60;4.63;;;5.30;99.90;;;;;;4993737;28;20048;-70
2021/12/07 14:19:09;;;;;;;13.95;4.68;;;;;;;;;;4992296;28;20150;-71
2021/12/07 14:21:36;;;;;;;18.00;5.50;;;;;;;;;;4992847;28;20095;-70
2021/12/07 14:24:08;;;;;;;19.80;6.60;;;4.90;99.90;;;;;;4992729;28;20057;-71
2021/12/07 14:26:37;;;;;;;17.50;5.50;;;5.20;99.90;;;;;;4993843;28;20133;-71
2021/12/07 14:29:06;;;;;;;19.42;4.93;;;;;;;;;;4993069;28;20141;-71
2021/12/07 14:31:37;;;;;;;22.25;6.10;;;;;;;;;;4992472;28;20111;-71
2021/12/07 14:34:09;;;;;;;21.65;4.90;;;;;;;;;;4993702;28;20049;-71
2021/12/07 14:36:35;;;;;;;12.55;4.32;;;;;;;;;;4993484;28;20129;-70
2021/12/07 14:39:07;;;;;;;17.20;5.35;;;5.00;99.90;;;;;;4993582;28;20129;-71
2021/12/07 14:41:33;;;;;;;13.10;5.13;;;;;;;;;;4993522;28;20046;-71
2021/12/07 14:43:59;;;;;;;16.75;5.57;;;;;;;;;;4993228;28;20376;-73
2021/12/07 14:46:26;;;;;;;12.80;5.30;;;4.50;99.90;;;;;;4993136;28;20522;-71
2021/12/07 14:48:53;;;;;;;18.38;6.10;;;;;;;;;;4993426;28;20218;-70
2021/12/07 14:51:26;;;;;;;29.00;7.18;;;4.70;99.90;;;;;;4993060;28;20530;-71
2021/12/07 14:53:55;;;;;;;17.83;6.40;;;;;;;;;;4993344;28;20046;-71
2021/12/07 14:56:21;;;;;;;22.52;6.82;;;;;;;;;;4992130;28;20046;-71
2021/12/07 14:58:49;;;;;;;17.65;6.30;;;;;;;;;;4992020;28;20120;-71
2021/12/07 15:01:20;;;;;;;18.27;5.70;;;;;;;;;;4993238;28;20100;-71
2021/12/07 15:03:48;;;;;;;14.70;5.45;;;;;;;;;;4992300;28;20054;-71
2021/12/07 15:06:15;;;;;;;18.67;6.60;;;;;;;;;;4993335;28;20051;-72
2021/12/07 15:08:42;;;;;;;19.95;6.28;;;4.40;99.90;;;;;;4992170;28;20054;-70
2021/12/07 15:11:09;;;;;;;15.98;6.07;;;;;;;;;;4993012;28;20038;-71
2021/12/07 15:13:35;;;;;;;25.17;7.28;;;;;;;;;;4976264;28;20054;-72
2021/12/07 15:16:03;;;;;;;20.13;6.93;;;4.20;99.90;;;;;;4992171;28;20046;-71
2021/12/07 15:18:39;;;;;;;22.90;6.45;;;4.10;99.90;;;;;;4993494;28;20065;-72
2021/12/07 15:21:14;;;;;;;21.58;6.57;;;;;;;;;;4994009;28;20053;-71
2021/12/07 15:23:54;;;;;;;19.23;6.93;;;;;;;;;;4997249;28;20430;-72
2021/12/07 15:26:22;;;;;;;16.63;7.75;;;;;;;;;;4996725;28;20086;-72
2021/12/07 15:29:05;;;;;;;20.30;7.22;;;3.80;99.90;;;;;;4998354;28;20061;-71
2021/12/07 15:31:34;;;;;;;24.20;7.10;;;3.80;99.90;;;;;;4996925;28;20062;-71
2021/12/07 15:34:01;;;;;;;25.30;8.10;;;;;;;;;;4997467;28;20054;-72
2021/12/07 15:36:30;;;;;;;27.80;8.30;;;3.80;99.90;;;;;;4995774;28;20552;-72
2021/12/07 15:39:05;;;;;;;21.08;8.57;;;;;;;;;;4996815;28;20198;-74
2021/12/07 15:41:31;;;;;;;29.02;11.05;;;;;;;;;;4995443;28;20077;-72
2021/12/07 15:43:58;;;;;;;27.48;9.25;;;;;;;;;;4996519;28;20050;-73
2021/12/07 15:46:24;;;;;;;28.10;9.77;;;;;;;;;;4996663;28;20089;-72
2021/12/07 15:48:50;;;;;;;24.92;9.50;;;;;;;;;;4996741;28;20054;-73
2021/12/07 15:51:16;;;;;;;24.52;8.95;;;3.90;99.90;;;;;;4993369;28;20053;-67
2021/12/07 15:53:42;;;;;;;29.75;9.93;;;;;;;;;;4999918;28;20181;-74
2021/12/07 15:56:18;;;;;;;28.92;10.35;;;;;;;;;;4995415;28;20048;-70
2021/12/07 15:58:45;;;;;;;26.13;10.57;;;;;;;;;;4995526;28;20089;-69